KCPS/CPS METAR and TAF weather

Enter ICAO airport designator
Station Type Date Time Source
KCPS METAR 2018/01/23 00:53 UTC NOAA

KCPS 230053Z 22011G20KT 10SM OVC048 08/M02 A2960 RMK AO2 PK WND 21027/0026 SLP024 T00781022


Station Type Date Time Source
KCPS Decoded METAR 2018/01/23 00:53 UTC NOAA

ST LOUIS DOWNTOWN AIRPORT, IL, United States (KCPS) 38-34N 090-09W 126M
Jan 22, 2018 - 07:53 PM EST / 2018.01.23 0053 UTC
Wind: from the SW (220 degrees) at 13 MPH (11 KT) gusting to 23 MPH (20 KT):0
Visibility: 10 mile(s):0
Sky conditions: overcast
Temperature: 46.0 F (7.8 C)
Dew Point: 28.0 F (-2.2 C)
Relative Humidity: 49%
Pressure (altimeter): 29.6 in. Hg (1002 hPa)
ob: KCPS 230053Z 22011G20KT 10SM OVC048 08/M02 A2960 RMK AO2 PK WND 21027/0026 SLP024 T00781022
cycle: 1

Station Type Date Time Source
KCPS TAF 2018/01/22 21:59 UTC NOAA

TAF
AMD KCPS 222059Z 2221/2318 22014G25KT P6SM BKN035
FM230000 23014G29KT P6SM VCSH OVC030
FM230500 24014G26KT P6SM OVC020
FM230900 27015G26KT P6SM OVC015
FM231700 29014G23KT P6SM OVC025


Example: see airport list